createdAt,value
2019-05-05T00:00:44.659Z,3.00
2019-05-05T00:03:17.449Z,3.00
2019-05-05T00:05:46.376Z,3.00
2019-05-05T00:08:15.302Z,3.00
2019-05-05T00:10:50.731Z,3.00
2019-05-05T00:13:27.201Z,3.10
2019-05-05T00:16:00.959Z,3.00
2019-05-05T00:18:29.395Z,3.00
2019-05-05T00:20:57.907Z,3.00
2019-05-05T00:23:26.280Z,3.00
2019-05-05T00:25:55.313Z,3.00
2019-05-05T00:28:24.909Z,3.00
2019-05-05T00:30:52.029Z,2.90
2019-05-05T00:33:20.371Z,2.90
2019-05-05T00:35:48.727Z,2.90
2019-05-05T00:38:17.647Z,2.80
2019-05-05T00:40:46.159Z,2.80
2019-05-05T00:43:14.869Z,2.80
2019-05-05T00:45:45.118Z,2.80
2019-05-05T00:48:16.463Z,2.80
2019-05-05T00:50:46.424Z,2.70
2019-05-05T00:53:14.768Z,2.60
2019-05-05T00:55:44.247Z,2.60
2019-05-05T00:58:11.554Z,2.60
2019-05-05T01:00:45.463Z,2.60
2019-05-05T01:03:15.308Z,2.60
2019-05-05T01:05:49.086Z,2.50
2019-05-05T01:08:19.706Z,2.50
2019-05-05T01:10:48.143Z,2.50
2019-05-05T01:13:16.476Z,2.50
2019-05-05T01:15:45.559Z,2.40
2019-05-05T01:18:15.212Z,2.40
2019-05-05T01:20:42.345Z,2.40
2019-05-05T01:23:11.307Z,2.40
2019-05-05T01:25:39.964Z,2.30
2019-05-05T01:28:08.679Z,2.30
2019-05-05T01:30:38.274Z,2.30
2019-05-05T01:33:12.032Z,2.20
2019-05-05T01:35:40.728Z,2.20
2019-05-05T01:38:14.218Z,2.20
2019-05-05T01:40:54.757Z,2.20
2019-05-05T01:43:22.288Z,2.20
2019-05-05T01:45:50.672Z,2.20
2019-05-05T01:48:19.660Z,2.10
2019-05-05T01:50:48.326Z,2.10
2019-05-05T01:53:16.846Z,2.00
2019-05-05T01:55:45.410Z,2.00
2019-05-05T01:58:15.254Z,2.00
2019-05-05T02:00:42.541Z,1.90
2019-05-05T02:03:11.317Z,1.90
2019-05-05T02:05:40.200Z,1.90
2019-05-05T02:08:08.552Z,1.90
2019-05-05T02:10:37.517Z,1.80
2019-05-05T02:13:05.914Z,1.80
2019-05-05T02:15:34.557Z,1.70
2019-05-05T02:18:04.568Z,1.60
2019-05-05T02:20:44.909Z,1.60
2019-05-05T02:23:12.203Z,1.50
2019-05-05T02:25:40.615Z,1.40
2019-05-05T02:28:08.997Z,1.40
2019-05-05T02:30:46.820Z,1.40
2019-05-05T02:33:15.823Z,1.40
2019-05-05T02:35:45.823Z,1.50
2019-05-05T02:38:15.422Z,1.60
2019-05-05T02:40:41.888Z,1.50
2019-05-05T02:43:10.306Z,1.50
2019-05-05T02:45:51.053Z,1.60
2019-05-05T02:48:19.580Z,1.50
2019-05-05T02:51:01.180Z,1.50
2019-05-05T02:53:25.091Z,1.50
2019-05-05T02:55:54.650Z,1.40
2019-05-05T02:58:24.460Z,1.40
2019-05-05T03:01:01.917Z,1.40
2019-05-05T03:03:30.743Z,1.40
2019-05-05T03:05:59.762Z,1.40
2019-05-05T03:08:28.204Z,1.40
2019-05-05T03:10:57.868Z,1.40
2019-05-05T03:13:26.241Z,1.40
2019-05-05T03:16:04.147Z,1.40
2019-05-05T03:18:33.828Z,1.40
2019-05-05T03:21:04.646Z,1.30
2019-05-05T03:23:30.060Z,1.30
2019-05-05T03:25:59.010Z,1.30
2019-05-05T03:28:31.710Z,1.30
2019-05-05T03:31:00.144Z,1.30
2019-05-05T03:33:28.624Z,1.30
2019-05-05T03:35:57.464Z,1.30
2019-05-05T03:38:25.813Z,1.30
2019-05-05T03:40:54.284Z,1.40
2019-05-05T03:43:26.597Z,1.40
2019-05-05T03:45:57.343Z,1.40
2019-05-05T03:48:25.792Z,1.50
2019-05-05T03:50:54.639Z,1.60
2019-05-05T03:53:24.613Z,1.60
2019-05-05T03:55:52.089Z,1.70
2019-05-05T03:58:20.648Z,1.80
2019-05-05T04:02:00.038Z,1.80
2019-05-05T04:04:30.106Z,1.90
2019-05-05T04:06:58.484Z,2.20
2019-05-05T04:09:26.982Z,2.30
2019-05-05T04:11:56.002Z,2.50
2019-05-05T04:14:25.121Z,2.60
2019-05-05T04:17:33.540Z,2.70
2019-05-05T04:20:03.678Z,2.70
2019-05-05T04:22:34.175Z,2.80
2019-05-05T04:25:00.597Z,2.90
2019-05-05T04:27:29.138Z,3.00
2019-05-05T04:29:57.979Z,3.10
2019-05-05T04:32:26.317Z,3.20
2019-05-05T04:34:54.935Z,3.30
2019-05-05T04:37:24.040Z,3.30
2019-05-05T04:39:53.747Z,3.30
2019-05-05T04:42:21.081Z,3.40
2019-05-05T04:44:49.763Z,3.50
2019-05-05T04:47:23.778Z,3.50
2019-05-05T04:49:55.429Z,3.60
2019-05-05T04:52:24.125Z,3.60
2019-05-05T04:54:55.671Z,3.70
2019-05-05T04:57:24.020Z,3.70
2019-05-05T04:59:53.749Z,3.80
2019-05-05T05:02:25.505Z,3.80
2019-05-05T05:04:57.245Z,3.90
2019-05-05T05:07:25.576Z,3.90
2019-05-05T05:09:54.155Z,4.00
2019-05-05T05:12:23.726Z,4.10
2019-05-05T05:14:50.943Z,4.20
2019-05-05T05:17:24.864Z,4.30
2019-05-05T05:19:51.825Z,4.30
2019-05-05T05:22:20.289Z,4.40
2019-05-05T05:24:49.321Z,4.40
2019-05-05T05:27:17.680Z,4.50
2019-05-05T05:29:46.007Z,4.60
2019-05-05T05:32:15.544Z,4.60
2019-05-05T05:34:43.908Z,4.70
2019-05-05T05:37:13.506Z,4.80
2019-05-05T05:39:45.465Z,4.80
2019-05-05T05:42:14.588Z,4.80
2019-05-05T05:44:53.522Z,5.00
2019-05-05T05:47:31.020Z,5.10
2019-05-05T05:50:04.722Z,5.20
2019-05-05T05:52:34.376Z,5.20
2019-05-05T05:55:01.657Z,5.30
2019-05-05T05:57:30.640Z,5.40
2019-05-05T05:59:59.287Z,5.40
2019-05-05T06:02:27.597Z,5.40
2019-05-05T06:04:56.522Z,5.50
2019-05-05T06:07:24.943Z,5.60
2019-05-05T06:09:54.163Z,5.60
2019-05-05T06:12:21.837Z,5.80
2019-05-05T06:14:50.305Z,5.80
2019-05-05T06:17:18.635Z,5.80
2019-05-05T06:19:47.400Z,5.90
2019-05-05T06:22:28.125Z,6.00
2019-05-05T06:24:44.304Z,6.10
2019-05-05T06:27:14.257Z,6.10
2019-05-05T06:29:41.236Z,6.20
2019-05-05T06:32:09.598Z,6.30
2019-05-05T06:34:38.132Z,6.40
2019-05-05T06:37:06.559Z,6.50
2019-05-05T06:39:34.986Z,6.50
2019-05-05T06:42:11.074Z,6.60
2019-05-05T06:44:44.231Z,6.70
2019-05-05T06:47:16.002Z,6.80
2019-05-05T06:49:44.419Z,6.90
2019-05-05T06:52:14.284Z,7.10
2019-05-05T06:54:43.684Z,7.10
2019-05-05T06:57:10.331Z,7.10
2019-05-05T06:59:38.620Z,7.10
2019-05-05T07:02:07.187Z,7.30
2019-05-05T07:04:35.503Z,7.50
2019-05-05T07:07:05.147Z,7.70
2019-05-05T07:09:33.607Z,7.90
2019-05-05T07:12:04.298Z,8.00
2019-05-05T07:14:30.745Z,8.10
2019-05-05T07:16:59.601Z,8.30
2019-05-05T07:19:27.953Z,8.60
2019-05-05T07:21:56.475Z,9.00
2019-05-05T07:24:25.028Z,9.40
2019-05-05T07:26:54.210Z,9.30
2019-05-05T07:29:23.880Z,9.30
2019-05-05T07:31:51.287Z,9.30
2019-05-05T07:34:19.622Z,9.60
2019-05-05T07:36:49.206Z,10.20
2019-05-05T07:39:17.804Z,10.50
2019-05-05T07:41:46.291Z,10.70
2019-05-05T07:44:25.735Z,11.00
2019-05-05T07:46:43.955Z,11.30
2019-05-05T07:49:13.717Z,11.50
2019-05-05T07:51:40.154Z,11.60
2019-05-05T07:54:08.958Z,11.50
2019-05-05T07:56:37.440Z,11.70
2019-05-05T07:59:05.886Z,11.80
2019-05-05T08:01:34.230Z,11.80
2019-05-05T08:04:04.565Z,12.00
2019-05-05T08:06:31.169Z,11.80
2019-05-05T08:09:00.232Z,11.90
2019-05-05T08:11:28.580Z,12.20
2019-05-05T08:13:57.277Z,11.80
2019-05-05T08:16:35.728Z,11.80
2019-05-05T08:19:13.585Z,11.90
2019-05-05T08:21:40.100Z,11.80
2019-05-05T08:24:20.352Z,11.90
2019-05-05T08:26:54.626Z,12.10
2019-05-05T08:29:27.100Z,12.60
2019-05-05T08:31:59.836Z,12.60
2019-05-05T08:34:28.189Z,12.00
2019-05-05T08:36:59.652Z,11.90
2019-05-05T08:39:25.103Z,12.40
2019-05-05T08:41:53.897Z,12.80
2019-05-05T08:44:23.644Z,13.20
2019-05-05T08:46:50.794Z,13.10
2019-05-05T08:49:20.256Z,12.90
2019-05-05T08:51:48.604Z,12.90
2019-05-05T08:54:17.476Z,13.00
2019-05-05T08:56:45.932Z,13.20
2019-05-05T08:59:14.484Z,13.10
2019-05-05T09:01:44.855Z,12.70
2019-05-05T09:04:14.127Z,12.60
2019-05-05T09:06:40.661Z,12.60
2019-05-05T09:09:09.004Z,13.00
2019-05-05T09:11:37.384Z,13.10
2019-05-05T09:14:05.845Z,13.60
2019-05-05T09:16:34.314Z,13.60
2019-05-05T09:19:05.665Z,13.70
2019-05-05T09:21:34.655Z,14.00
2019-05-05T09:24:06.776Z,14.00
2019-05-05T09:26:40.510Z,13.80
2019-05-05T09:29:15.648Z,13.60
2019-05-05T09:31:45.040Z,13.90
2019-05-05T09:34:14.208Z,14.50
2019-05-05T09:36:41.038Z,14.60
2019-05-05T09:39:09.593Z,14.70
2019-05-05T09:41:38.233Z,15.20
2019-05-05T09:44:07.137Z,15.30
2019-05-05T09:46:35.565Z,14.80
2019-05-05T09:49:04.701Z,14.20
2019-05-05T09:51:34.545Z,14.30
2019-05-05T09:54:11.895Z,13.90
2019-05-05T09:56:29.473Z,14.10
2019-05-05T09:58:58.327Z,14.20
2019-05-05T10:01:26.656Z,14.10
2019-05-05T10:03:56.192Z,14.40
2019-05-05T10:06:24.852Z,14.80
2019-05-05T10:08:53.820Z,14.90
2019-05-05T10:11:23.729Z,14.70
2019-05-05T10:13:50.176Z,14.20
2019-05-05T10:16:18.576Z,14.50
2019-05-05T10:18:46.954Z,15.00
2019-05-05T10:21:17.713Z,15.30
2019-05-05T10:23:44.327Z,15.70
2019-05-05T10:26:14.797Z,15.40
2019-05-05T10:28:41.169Z,15.60
2019-05-05T10:31:09.701Z,16.00
2019-05-05T10:33:39.690Z,16.00
2019-05-05T10:36:08.602Z,15.70
2019-05-05T10:38:37.239Z,15.40
2019-05-05T10:41:05.576Z,15.60
2019-05-05T10:43:34.384Z,16.00
2019-05-05T10:46:03.913Z,16.50
2019-05-05T10:48:31.017Z,16.80
2019-05-05T10:50:59.966Z,16.50
2019-05-05T10:53:28.443Z,16.30
2019-05-05T10:55:56.835Z,15.50
2019-05-05T10:58:25.120Z,15.70
2019-05-05T11:00:56.943Z,16.00
2019-05-05T11:03:25.677Z,16.10
2019-05-05T11:05:54.660Z,15.90
2019-05-05T11:08:24.064Z,15.50
2019-05-05T11:10:51.903Z,15.20
2019-05-05T11:13:20.288Z,15.20
2019-05-05T11:15:49.014Z,15.80
2019-05-05T11:18:17.680Z,16.50
2019-05-05T11:20:46.155Z,16.30
2019-05-05T11:23:15.234Z,16.10
2019-05-05T11:25:44.254Z,16.20
2019-05-05T11:28:11.950Z,16.20
2019-05-05T11:30:41.476Z,16.10
2019-05-05T11:33:19.959Z,16.20
2019-05-05T11:35:53.958Z,15.00
2019-05-05T11:38:21.387Z,14.90
2019-05-05T11:40:49.863Z,15.20
2019-05-05T11:43:18.380Z,15.20
2019-05-05T11:45:47.088Z,14.80
2019-05-05T11:48:15.514Z,15.20
2019-05-05T11:50:44.186Z,15.30
2019-05-05T11:53:14.551Z,15.40
2019-05-05T11:55:41.528Z,14.90
2019-05-05T11:58:09.901Z,15.10
2019-05-05T12:00:38.795Z,15.70
2019-05-05T12:03:07.159Z,15.90
2019-05-05T12:05:35.625Z,15.30
2019-05-05T12:08:04.247Z,15.40
2019-05-05T12:10:40.645Z,15.30
2019-05-05T12:13:09.523Z,14.50
2019-05-05T12:15:37.891Z,14.70
2019-05-05T12:18:06.368Z,15.30
2019-05-05T12:20:35.478Z,15.90
2019-05-05T12:23:04.640Z,15.70
2019-05-05T12:25:40.541Z,15.40
2019-05-05T12:28:13.745Z,15.40
2019-05-05T12:30:44.313Z,14.90
2019-05-05T12:33:10.622Z,15.00
2019-05-05T12:35:39.058Z,14.80
2019-05-05T12:38:07.599Z,14.80
2019-05-05T12:40:35.918Z,14.80
2019-05-05T12:43:04.314Z,14.10
2019-05-05T12:45:34.570Z,14.20
2019-05-05T12:48:13.446Z,14.20
2019-05-05T12:50:40.345Z,13.50
2019-05-05T12:53:08.742Z,13.10
2019-05-05T12:55:41.603Z,12.80
2019-05-05T12:58:05.905Z,12.60
2019-05-05T13:00:34.601Z,12.40
2019-05-05T13:03:04.454Z,12.20
2019-05-05T13:05:31.401Z,12.10
2019-05-05T13:08:00.115Z,12.10
2019-05-05T13:10:28.822Z,12.10
2019-05-05T13:12:57.523Z,12.10
2019-05-05T13:15:26.100Z,12.20
2019-05-05T13:17:55.185Z,12.30
2019-05-05T13:20:29.880Z,12.50
2019-05-05T13:23:04.171Z,12.50
2019-05-05T13:25:37.226Z,12.40
2019-05-05T13:28:05.728Z,12.20
2019-05-05T13:30:34.438Z,12.00
2019-05-05T13:33:03.674Z,12.00
2019-05-05T13:35:31.584Z,12.10
2019-05-05T13:38:00.002Z,12.10
2019-05-05T13:40:28.373Z,12.00
2019-05-05T13:42:56.723Z,12.00
2019-05-05T13:45:31.021Z,12.20
2019-05-05T13:47:59.382Z,12.50
2019-05-05T13:50:33.996Z,12.60
2019-05-05T13:53:00.985Z,12.60
2019-05-05T13:55:29.717Z,12.60
2019-05-05T13:57:58.729Z,12.60
2019-05-05T14:00:27.261Z,12.60
2019-05-05T14:02:55.600Z,12.70
2019-05-05T14:05:24.537Z,12.90
2019-05-05T14:07:53.665Z,12.90
2019-05-05T14:10:23.537Z,12.70
2019-05-05T14:12:50.224Z,12.70
2019-05-05T14:15:18.571Z,12.50
2019-05-05T14:17:47.245Z,12.50
2019-05-05T14:20:15.691Z,12.40
2019-05-05T14:22:44.058Z,12.30
2019-05-05T14:25:16.317Z,12.30
2019-05-05T14:27:44.894Z,12.30
2019-05-05T14:30:28.835Z,12.20
2019-05-05T14:32:57.300Z,12.10
2019-05-05T14:35:34.091Z,12.40
2019-05-05T14:38:04.127Z,12.50
2019-05-05T14:40:33.910Z,12.60
2019-05-05T14:43:01.213Z,12.60
2019-05-05T14:45:29.602Z,12.70
2019-05-05T14:47:57.955Z,12.80
2019-05-05T14:50:27.840Z,12.90
2019-05-05T14:52:56.454Z,13.10
2019-05-05T14:55:25.573Z,13.40
2019-05-05T14:57:54.197Z,13.60
2019-05-05T15:00:24.207Z,13.70
2019-05-05T15:02:51.561Z,13.60
2019-05-05T15:05:25.647Z,13.70
2019-05-05T15:08:01.439Z,13.60
2019-05-05T15:11:44.499Z,13.40
2019-05-05T15:14:13.808Z,13.20
2019-05-05T15:16:41.030Z,13.00
2019-05-05T15:19:09.587Z,13.00
2019-05-05T15:21:38.002Z,13.00
2019-05-05T15:24:06.737Z,12.90
2019-05-05T15:26:35.367Z,12.90
2019-05-05T15:29:03.703Z,12.80
2019-05-05T15:31:34.065Z,12.70
2019-05-05T15:34:00.739Z,12.60
2019-05-05T15:36:29.706Z,12.60
2019-05-05T15:38:58.031Z,12.50
2019-05-05T15:41:26.934Z,12.40
2019-05-05T15:43:55.928Z,12.40
2019-05-05T15:46:25.440Z,12.50
2019-05-05T15:48:54.550Z,12.40
2019-05-05T15:51:23.689Z,12.20
2019-05-05T15:53:54.106Z,12.00
2019-05-05T15:56:20.434Z,12.00
2019-05-05T15:58:49.098Z,12.00
2019-05-05T16:01:17.548Z,12.10
2019-05-05T16:03:46.034Z,12.00
2019-05-05T16:06:14.557Z,11.90
2019-05-05T16:08:44.533Z,11.80
2019-05-05T16:11:11.513Z,11.70
2019-05-05T16:13:40.043Z,11.60
2019-05-05T16:16:17.413Z,11.50
2019-05-05T16:19:05.777Z,11.20
2019-05-05T16:21:34.747Z,11.00
2019-05-05T16:24:07.717Z,10.70
2019-05-05T16:26:36.046Z,10.50
2019-05-05T16:29:04.662Z,10.40
2019-05-05T16:31:34.213Z,10.30
2019-05-05T16:34:03.742Z,10.30
2019-05-05T16:36:30.259Z,10.30
2019-05-05T16:38:59.262Z,10.10
2019-05-05T16:41:28.290Z,10.10
2019-05-05T16:43:56.839Z,10.00
2019-05-05T16:46:25.597Z,9.90
2019-05-05T16:48:54.216Z,9.80
2019-05-05T16:51:26.052Z,9.70
2019-05-05T16:53:56.684Z,9.60
2019-05-05T16:56:24.228Z,9.50
2019-05-05T16:58:51.802Z,9.50
2019-05-05T17:01:20.182Z,9.50
2019-05-05T17:03:48.667Z,9.50
2019-05-05T17:06:16.995Z,9.50
2019-05-05T17:08:45.412Z,9.40
2019-05-05T17:11:15.134Z,9.30
2019-05-05T17:13:47.155Z,9.20
2019-05-05T17:17:19.189Z,9.10
2019-05-05T17:19:53.829Z,9.10
2019-05-05T17:22:25.035Z,9.00
2019-05-05T17:24:53.912Z,9.00
2019-05-05T17:27:23.645Z,9.00
2019-05-05T17:29:50.999Z,9.00
2019-05-05T17:32:19.786Z,8.90
2019-05-05T17:34:48.318Z,8.80
2019-05-05T17:37:16.635Z,8.80
2019-05-05T17:39:54.566Z,8.80
2019-05-05T17:44:28.641Z,8.80
2019-05-05T17:47:04.451Z,8.80
2019-05-05T17:49:40.129Z,8.70
2019-05-05T17:52:14.999Z,8.70
2019-05-05T17:54:45.670Z,8.70
2019-05-05T17:57:14.314Z,8.70
2019-05-05T17:59:44.129Z,8.60
2019-05-05T18:02:11.469Z,8.60
2019-05-05T18:04:39.917Z,8.60
2019-05-05T18:07:14.314Z,8.60
2019-05-05T18:09:47.555Z,8.60
2019-05-05T18:12:25.957Z,8.50
2019-05-05T18:14:55.550Z,8.50
2019-05-05T18:17:24.397Z,8.50
2019-05-05T18:19:53.608Z,8.40
2019-05-05T18:22:21.336Z,8.40
2019-05-05T18:24:49.685Z,8.40
2019-05-05T18:27:18.324Z,8.40
2019-05-05T18:29:46.900Z,8.30
2019-05-05T18:32:15.251Z,8.30
2019-05-05T18:34:44.289Z,8.30
2019-05-05T18:37:14.466Z,8.20
2019-05-05T18:39:41.260Z,8.20
2019-05-05T18:42:14.662Z,8.10
2019-05-05T18:44:45.754Z,8.10
2019-05-05T18:47:18.352Z,8.10
2019-05-05T18:49:44.263Z,8.10
2019-05-05T18:52:13.829Z,8.00
2019-05-05T18:54:43.458Z,8.00
2019-05-05T18:57:10.238Z,8.10
2019-05-05T18:59:38.747Z,8.00
2019-05-05T19:02:19.619Z,8.00
2019-05-05T19:05:55.568Z,7.90
2019-05-05T19:08:27.561Z,7.90
2019-05-05T19:10:56.490Z,7.80
2019-05-05T19:13:25.275Z,7.80
2019-05-05T19:15:53.968Z,7.70
2019-05-05T19:18:24.323Z,7.70
2019-05-05T19:20:55.296Z,7.60
2019-05-05T19:23:24.014Z,7.60
2019-05-05T19:25:55.813Z,7.70
2019-05-05T19:28:20.909Z,7.60
2019-05-05T19:30:49.408Z,7.60
2019-05-05T19:33:17.751Z,7.60
2019-05-05T19:35:47.383Z,7.60
2019-05-05T19:38:15.816Z,7.60
2019-05-05T19:40:43.294Z,7.60
2019-05-05T19:43:13.856Z,7.60
2019-05-05T19:45:41.152Z,7.50
2019-05-05T19:48:09.501Z,7.50
2019-05-05T19:50:44.464Z,7.50
2019-05-05T19:53:17.061Z,7.50
2019-05-05T19:55:45.724Z,7.40
2019-05-05T19:58:14.119Z,7.40
2019-05-05T20:00:43.893Z,7.50
2019-05-05T20:03:11.611Z,7.40
2019-05-05T20:05:43.083Z,7.40
2019-05-05T20:08:08.674Z,7.40
2019-05-05T20:10:37.568Z,7.40
2019-05-05T20:13:06.049Z,7.40
2019-05-05T20:15:39.508Z,7.40
2019-05-05T20:18:07.994Z,7.30
2019-05-05T20:20:36.707Z,7.40
2019-05-05T20:23:05.055Z,7.40
2019-05-05T20:25:34.100Z,7.40
2019-05-05T20:28:03.872Z,7.40
2019-05-05T20:30:30.678Z,7.30
2019-05-05T20:33:04.073Z,7.30
2019-05-05T20:35:35.990Z,7.30
2019-05-05T20:38:10.057Z,7.30
2019-05-05T20:40:39.678Z,7.30
2019-05-05T20:43:08.056Z,7.20
2019-05-05T20:45:36.429Z,7.20
2019-05-05T20:48:04.786Z,7.30
2019-05-05T20:50:34.319Z,7.30
2019-05-05T20:53:01.732Z,7.30
2019-05-05T20:55:30.122Z,7.30
2019-05-05T20:57:58.745Z,7.20
2019-05-05T21:00:27.120Z,7.30
2019-05-05T21:02:56.183Z,7.20
2019-05-05T21:05:24.837Z,7.20
2019-05-05T21:07:53.195Z,7.10
2019-05-05T21:10:23.989Z,7.10
2019-05-05T21:12:50.455Z,7.10
2019-05-05T21:15:19.091Z,7.00
2019-05-05T21:17:47.675Z,7.00
2019-05-05T21:20:16.044Z,7.00
2019-05-05T21:22:56.181Z,6.90
2019-05-05T21:25:28.524Z,6.90
2019-05-05T21:27:57.467Z,6.90
2019-05-05T21:30:25.995Z,6.90
2019-05-05T21:32:54.806Z,6.90
2019-05-05T21:35:23.977Z,6.90
2019-05-05T21:37:51.284Z,6.80
2019-05-05T21:40:19.827Z,6.80
2019-05-05T21:42:48.339Z,6.80
2019-05-05T21:45:17.181Z,6.80
2019-05-05T21:47:45.661Z,6.80
2019-05-05T21:50:14.981Z,6.70
2019-05-05T21:52:49.022Z,6.60
2019-05-05T21:55:26.413Z,6.60
2019-05-05T21:58:01.191Z,6.50
2019-05-05T22:00:35.255Z,6.50
2019-05-05T22:03:04.532Z,6.40
2019-05-05T22:05:33.530Z,6.40
2019-05-05T22:08:00.512Z,6.40
2019-05-05T22:10:29.174Z,6.30
2019-05-05T22:12:57.480Z,6.30
2019-05-05T22:15:25.927Z,6.20
2019-05-05T22:17:54.736Z,6.20
2019-05-05T22:20:44.065Z,6.20
2019-05-05T22:23:10.458Z,6.20
2019-05-05T22:25:39.193Z,6.20
2019-05-05T22:28:08.135Z,6.10
2019-05-05T22:30:37.265Z,6.10
2019-05-05T22:33:06.097Z,6.20
2019-05-05T22:35:35.185Z,6.30
2019-05-05T22:38:05.882Z,6.30
2019-05-05T22:40:34.631Z,6.40
2019-05-05T22:43:03.325Z,6.50
2019-05-05T22:45:30.249Z,6.60
2019-05-05T22:47:59.088Z,6.60
2019-05-05T22:50:28.288Z,6.60
2019-05-05T22:52:56.890Z,6.60
2019-05-05T22:55:25.475Z,6.60
2019-05-05T22:57:54.543Z,6.60
2019-05-05T23:00:29.128Z,6.60
2019-05-05T23:02:55.867Z,6.50
2019-05-05T23:05:46.148Z,6.50
2019-05-05T23:08:18.244Z,6.40
2019-05-05T23:10:44.130Z,6.40
2019-05-05T23:13:13.550Z,6.30
2019-05-05T23:15:46.174Z,6.20
2019-05-05T23:18:21.063Z,6.10
2019-05-05T23:21:55.888Z,5.90
2019-05-05T23:24:38.674Z,5.70
2019-05-05T23:27:08.172Z,5.60
2019-05-05T23:29:36.777Z,5.50
2019-05-05T23:32:05.353Z,5.40
2019-05-05T23:34:33.958Z,5.30
2019-05-05T23:37:04.292Z,5.30
2019-05-05T23:39:31.408Z,5.20
2019-05-05T23:42:00.460Z,5.10
2019-05-05T23:44:29.165Z,5.10
2019-05-05T23:46:57.716Z,5.10
2019-05-05T23:49:26.473Z,5.10
2019-05-05T23:51:55.198Z,5.00
2019-05-05T23:54:24.821Z,4.90
2019-05-05T23:56:53.745Z,4.80
2019-05-05T23:59:23.937Z,4.80
